Time;durP1;ratioP1;P1;durP2;ratioP2;P2;SDS_P1;SDS_P2;PMS_P1;PMS_P2;Temp;Humidity;BMP_temperature;BMP_pressure;BME280_temperature;BME280_humidity;BME280_pressure;Samples;Min_cycle;Max_cycle;Signal;HPM_P1;HPM_P2
2023/03/22 00:00:52;;;;;;;11.30;7.40;;;10.80;83.20;;;;;;5090400;28;20051;-82
2023/03/22 00:03:18;;;;;;;9.02;6.55;;;10.80;83.20;;;;;;5078573;28;20032;-83
2023/03/22 00:05:44;;;;;;;10.55;6.70;;;10.80;83.10;;;;;;5078950;28;20039;-82
2023/03/22 00:08:12;;;;;;;11.55;6.65;;;10.70;82.90;;;;;;5094144;28;20040;-81
2023/03/22 00:10:39;;;;;;;14.93;7.78;;;10.70;82.80;;;;;;5094047;28;20044;-82
2023/03/22 00:13:07;;;;;;;12.00;7.47;;;10.70;82.70;;;;;;5109503;27;20617;-82
2023/03/22 00:15:33;;;;;;;10.15;6.22;;;10.70;82.70;;;;;;5100467;27;20039;-82
2023/03/22 00:18:00;;;;;;;10.95;6.70;;;10.60;82.60;;;;;;5100345;27;20039;-82
2023/03/22 00:20:32;;;;;;;10.93;6.60;;;10.60;82.60;;;;;;5100454;27;20031;-82
2023/03/22 00:22:58;;;;;;;11.07;6.25;;;10.60;82.60;;;;;;5101242;27;20046;-82
2023/03/22 00:25:24;;;;;;;10.52;6.28;;;10.60;82.60;;;;;;5065938;28;20040;-82
2023/03/22 00:27:50;;;;;;;9.63;6.30;;;10.60;82.70;;;;;;5092372;28;20032;-82
2023/03/22 00:30:16;;;;;;;11.70;6.35;;;10.50;82.60;;;;;;5093359;28;20040;-82
2023/03/22 00:32:42;;;;;;;10.07;5.20;;;10.50;82.60;;;;;;5089243;28;20039;-81
2023/03/22 00:35:09;;;;;;;12.57;4.93;;;10.50;82.60;;;;;;5079522;28;20390;-82
2023/03/22 00:37:37;;;;;;;11.77;5.55;;;10.50;82.60;;;;;;5079731;28;20047;-81
2023/03/22 00:40:21;;;;;;;10.35;4.57;;;10.50;82.60;;;;;;5077529;28;20055;-81
2023/03/22 00:42:47;;;;;;;8.90;4.38;;;10.50;82.50;;;;;;5094681;27;20479;-82
2023/03/22 00:45:13;;;;;;;12.77;5.72;;;10.40;82.60;;;;;;5099620;27;20035;-82
2023/03/22 00:47:39;;;;;;;9.95;4.18;;;10.40;82.60;;;;;;5083318;27;20180;-82
2023/03/22 00:50:06;;;;;;;9.15;4.22;;;10.40;82.60;;;;;;5116902;27;20428;-82
2023/03/22 00:52:31;;;;;;;9.73;3.78;;;10.40;82.60;;;;;;5083086;27;20054;-81
2023/03/22 00:54:57;;;;;;;9.32;4.00;;;10.40;82.50;;;;;;5099783;27;20555;-82
2023/03/22 00:57:23;;;;;;;10.70;3.72;;;10.40;82.50;;;;;;5116438;27;20039;-81
2023/03/22 00:59:51;;;;;;;9.88;3.75;;;10.40;82.50;;;;;;5082782;27;20041;-81
2023/03/22 01:02:17;;;;;;;7.45;3.05;;;10.40;82.50;;;;;;5090768;28;20028;-80
2023/03/22 01:04:47;;;;;;;8.30;3.47;;;10.40;82.50;;;;;;5109358;28;20039;-81
2023/03/22 01:07:17;;;;;;;8.90;2.92;;;10.40;82.40;;;;;;5101364;27;20047;-81
2023/03/22 01:09:46;;;;;;;8.25;3.25;;;10.40;82.40;;;;;;5092311;28;20051;-81
2023/03/22 01:12:12;;;;;;;7.75;3.17;;;10.40;82.40;;;;;;5098069;28;20043;-82
2023/03/22 01:14:38;;;;;;;8.10;2.47;;;10.40;82.40;;;;;;5113589;27;20043;-82
2023/03/22 01:17:04;;;;;;;8.52;3.00;;;10.40;82.40;;;;;;5082801;27;20168;-82
2023/03/22 01:19:30;;;;;;;12.10;2.63;;;10.30;82.30;;;;;;5099689;27;20457;-82
2023/03/22 01:21:56;;;;;;;7.47;2.63;;;10.30;82.30;;;;;;5082859;27;20123;-82
2023/03/22 01:24:22;;;;;;;9.95;2.75;;;10.40;82.30;;;;;;5099375;27;20576;-82
2023/03/22 01:26:48;;;;;;;8.00;2.72;;;10.40;82.30;;;;;;5082388;27;20540;-82
2023/03/22 01:29:14;;;;;;;7.30;2.20;;;10.40;82.30;;;;;;5082535;27;20039;-82
2023/03/22 01:31:40;;;;;;;7.38;2.25;;;10.30;82.20;;;;;;5099260;28;20045;-81
2023/03/22 01:34:06;;;;;;;9.95;2.22;;;10.30;82.20;;;;;;5099329;27;20125;-81
2023/03/22 01:36:32;;;;;;;8.85;2.40;;;10.40;82.20;;;;;;5116346;27;20460;-82
2023/03/22 01:38:58;;;;;;;6.57;2.22;;;10.30;82.20;;;;;;5116171;27;20126;-81
2023/03/22 01:41:24;;;;;;;9.35;2.40;;;10.30;82.10;;;;;;5098319;28;20436;-82
2023/03/22 01:44:14;;;;;;;6.63;1.88;;;10.40;82.20;;;;;;5098486;28;20042;-81
2023/03/22 01:46:41;;;;;;;9.98;1.77;;;10.40;82.00;;;;;;5097302;28;20054;-82
2023/03/22 01:49:20;;;;;;;7.82;2.30;;;10.40;82.20;;;;;;5115355;28;20066;-81
2023/03/22 01:51:49;;;;;;;5.38;1.90;;;10.40;82.10;;;;;;5115742;28;20035;-81
2023/03/22 01:54:28;;;;;;;5.97;1.98;;;10.30;82.00;;;;;;5098227;28;20550;-81
2023/03/22 01:56:54;;;;;;;6.68;1.52;;;10.40;82.00;;;;;;5090670;28;20043;-81
2023/03/22 01:59:21;;;;;;;6.30;1.90;;;10.40;82.00;;;;;;5095041;28;20035;-81
2023/03/22 02:01:47;;;;;;;8.02;1.83;;;10.40;82.00;;;;;;5078094;28;20491;-81
2023/03/22 02:04:19;;;;;;;8.82;1.90;;;10.30;81.90;;;;;;5113441;28;20036;-81
2023/03/22 02:06:46;;;;;;;11.27;2.10;;;10.40;81.90;;;;;;5074734;28;20123;-81
2023/03/22 02:09:16;;;;;;;5.78;1.67;;;10.30;81.80;;;;;;5074610;28;20040;-81
2023/03/22 02:12:19;;;;;;;9.45;2.40;;;10.40;81.80;;;;;;5091302;28;20084;-81
2023/03/22 02:15:06;;;;;;;7.47;1.90;;;10.30;81.60;;;;;;5108116;28;20032;-82
2023/03/22 02:17:58;;;;;;;10.68;2.97;;;10.30;81.70;;;;;;5091165;28;20063;-82
2023/03/22 02:20:59;;;;;;;7.40;1.45;;;10.30;81.60;;;;;;5107983;28;20554;-82
2023/03/22 02:23:58;;;;;;;10.27;2.30;;;10.30;81.60;;;;;;5091310;28;20036;-83
2023/03/22 02:26:38;;;;;;;6.10;1.90;;;10.30;81.60;;;;;;5125138;28;20033;-82
2023/03/22 02:29:45;;;;;;;7.88;2.03;;;10.30;81.70;;;;;;5090949;28;20047;-83
2023/03/22 02:32:42;;;;;;;10.05;2.42;;;10.30;81.50;;;;;;5052179;28;20040;-82
2023/03/22 02:35:10;;;;;;;9.88;2.33;;;10.30;81.50;;;;;;5074030;28;20043;-82
2023/03/22 02:38:15;;;;;;;8.85;2.78;;;10.30;81.60;;;;;;5120126;28;20087;-81
2023/03/22 02:41:21;;;;;;;6.38;2.30;;;10.30;81.40;;;;;;5063724;28;1138556;-82
2023/03/22 02:43:53;;;;;;;8.88;2.55;;;10.30;81.50;;;;;;5052137;28;20490;-81
2023/03/22 02:46:25;;;;;;;6.85;2.55;;;10.30;81.60;;;;;;5098588;28;20039;-81
2023/03/22 02:49:14;;;;;;;8.18;3.08;;;10.30;81.50;;;;;;5115429;28;20035;-81
2023/03/22 02:51:47;;;;;;;9.80;3.00;;;10.30;81.40;;;;;;5066839;28;20486;-81
2023/03/22 02:54:32;;;;;;;10.40;2.85;;;10.30;81.50;;;;;;5098770;28;20118;-82
2023/03/22 02:57:29;;;;;;;9.45;2.85;;;10.30;81.30;;;;;;5098279;27;20039;-82
2023/03/22 02:59:57;;;;;;;7.15;2.20;;;10.30;81.30;;;;;;5099707;27;20050;-82
2023/03/22 03:02:26;;;;;;;11.57;2.47;;;10.30;81.50;;;;;;5098632;28;20089;-82
2023/03/22 03:04:53;;;;;;;8.32;2.50;;;10.30;81.50;;;;;;5098477;28;20035;-82
2023/03/22 03:07:23;;;;;;;9.20;2.75;;;10.30;81.50;;;;;;5081779;28;20437;-82
2023/03/22 03:09:50;;;;;;;6.93;2.90;;;10.30;81.40;;;;;;5082689;28;20389;-82
2023/03/22 03:12:22;;;;;;;10.20;3.17;;;10.30;81.40;;;;;;5098681;28;20040;-82
2023/03/22 03:14:48;;;;;;;10.55;3.67;;;10.30;81.40;;;;;;5098295;28;20044;-82
2023/03/22 03:17:25;;;;;;;5.80;2.05;;;10.30;81.30;;;;;;5119715;27;20093;-82
2023/03/22 03:20:06;;;;;;;9.02;2.20;;;10.30;81.30;;;;;;5129254;27;20051;-82
2023/03/22 03:22:35;;;;;;;8.60;2.40;;;10.30;81.20;;;;;;5078219;28;20513;-82
2023/03/22 03:25:17;;;;;;;9.73;2.80;;;10.30;81.20;;;;;;5129262;27;20051;-82
2023/03/22 03:28:08;;;;;;;8.18;2.38;;;10.30;81.10;;;;;;5111638;28;20051;-81
2023/03/22 03:30:59;;;;;;;9.45;2.55;;;10.30;81.10;;;;;;5094639;28;20065;-83
2023/03/22 03:33:28;;;;;;;5.80;2.65;;;10.30;81.00;;;;;;5081156;27;20076;-83
2023/03/22 03:36:00;;;;;;;12.02;3.28;;;10.20;81.10;;;;;;5101287;27;20047;-83
2023/03/22 03:38:32;;;;;;;9.20;2.60;;;10.30;81.10;;;;;;5060963;28;20048;-83
2023/03/22 03:41:08;;;;;;;8.73;2.38;;;10.20;81.00;;;;;;5060796;28;20094;-82
2023/03/22 03:43:36;;;;;;;9.43;2.78;;;10.20;81.00;;;;;;5060989;28;20040;-83
2023/03/22 03:46:01;;;;;;;8.48;2.65;;;10.20;81.00;;;;;;5077954;28;20063;-82
2023/03/22 03:48:29;;;;;;;7.97;2.50;;;10.20;81.00;;;;;;5044286;28;20121;-83
2023/03/22 03:50:57;;;;;;;7.57;2.65;;;10.20;81.00;;;;;;5097436;27;20050;-84
2023/03/22 03:53:23;;;;;;;9.95;2.50;;;10.20;80.90;;;;;;5118012;27;20081;-83
2023/03/22 03:55:48;;;;;;;8.27;2.25;;;10.20;80.90;;;;;;5084228;27;20071;-83
2023/03/22 03:58:17;;;;;;;7.43;2.40;;;10.20;80.80;;;;;;5067396;27;20093;-83
2023/03/22 04:00:45;;;;;;;10.93;3.17;;;10.20;80.80;;;;;;5100807;27;20073;-84
2023/03/22 04:03:12;;;;;;;13.73;3.38;;;10.20;80.80;;;;;;5083622;28;20047;-83
2023/03/22 04:05:37;;;;;;;12.25;3.70;;;10.20;80.90;;;;;;5080459;28;20680;-84
2023/03/22 04:08:04;;;;;;;12.82;4.47;;;10.20;80.90;;;;;;5114201;28;20043;-83
2023/03/22 04:10:30;;;;;;;10.32;4.18;;;10.20;80.90;;;;;;5096318;28;20490;-83
2023/03/22 04:12:55;;;;;;;10.25;3.78;;;10.20;81.00;;;;;;5114265;28;20100;-83
2023/03/22 04:15:22;;;;;;;10.77;4.60;;;10.20;81.10;;;;;;5080409;28;20425;-83
2023/03/22 04:17:47;;;;;;;13.73;5.03;;;10.20;81.20;;;;;;5097100;28;20092;-82
2023/03/22 04:20:13;;;;;;;9.13;4.53;;;10.20;81.30;;;;;;5114128;28;20431;-83
2023/03/22 04:22:40;;;;;;;9.63;4.55;;;10.20;81.30;;;;;;5114382;28;20031;-83
2023/03/22 04:25:12;;;;;;;10.40;3.97;;;10.20;81.40;;;;;;5080391;28;20072;-83
2023/03/22 04:27:39;;;;;;;10.80;5.10;;;10.20;81.50;;;;;;5096995;28;20049;-83
2023/03/22 04:30:09;;;;;;;12.07;4.38;;;10.20;81.50;;;;;;5080217;28;20447;-83
2023/03/22 04:32:36;;;;;;;10.65;5.18;;;10.20;81.60;;;;;;5096841;28;20057;-83
2023/03/22 04:35:02;;;;;;;9.82;5.25;;;10.30;81.70;;;;;;5079881;28;20128;-83
2023/03/22 04:37:30;;;;;;;10.43;5.75;;;10.20;81.70;;;;;;5080367;28;20533;-83
2023/03/22 04:39:56;;;;;;;8.57;4.72;;;10.30;81.90;;;;;;5067087;27;20383;-83
2023/03/22 04:42:22;;;;;;;10.90;6.13;;;10.30;81.90;;;;;;5100623;27;20046;-83
2023/03/22 04:44:47;;;;;;;11.95;6.28;;;10.20;81.90;;;;;;5094184;28;20035;-84
2023/03/22 04:47:13;;;;;;;12.73;5.93;;;10.30;82.50;;;;;;5079866;28;20047;-84
2023/03/22 04:49:39;;;;;;;11.65;5.53;;;10.30;82.20;;;;;;5096596;28;20075;-83
2023/03/22 04:52:05;;;;;;;10.07;5.93;;;10.30;82.20;;;;;;5080001;28;20552;-83
2023/03/22 04:54:31;;;;;;;13.02;6.65;;;10.30;82.30;;;;;;5079294;28;20114;-83
2023/03/22 04:56:57;;;;;;;14.68;7.75;;;10.30;82.40;;;;;;5079231;28;20039;-78
2023/03/22 04:59:22;;;;;;;12.35;6.28;;;10.30;82.40;;;;;;5062866;28;20036;-78
2023/03/22 05:01:50;;;;;;;13.40;7.30;;;10.30;82.50;;;;;;5089874;27;20027;-78
2023/03/22 05:04:16;;;;;;;15.77;7.78;;;10.30;82.60;;;;;;5082942;27;20071;-79
2023/03/22 05:06:43;;;;;;;11.65;6.65;;;10.30;82.60;;;;;;5099090;27;20070;-79
2023/03/22 05:09:09;;;;;;;12.43;7.28;;;10.30;82.70;;;;;;5099921;27;20035;-78
2023/03/22 05:11:35;;;;;;;14.88;7.70;;;10.30;82.80;;;;;;5066408;28;20032;-78
2023/03/22 05:14:01;;;;;;;13.30;7.80;;;10.30;82.80;;;;;;5042626;28;20043;-78
2023/03/22 05:16:27;;;;;;;14.15;8.35;;;10.30;82.90;;;;;;5075844;28;20036;-78
2023/03/22 05:18:53;;;;;;;15.15;8.13;;;10.30;82.90;;;;;;5092670;28;20088;-78
2023/03/22 05:21:21;;;;;;;15.00;7.53;;;10.30;83.00;;;;;;5058722;28;20398;-78
2023/03/22 05:23:47;;;;;;;15.48;8.82;;;10.30;83.00;;;;;;5093760;27;20031;-77
2023/03/22 05:26:17;;;;;;;12.57;7.90;;;10.30;83.00;;;;;;5099700;27;20134;-78
2023/03/22 05:28:43;;;;;;;12.63;8.45;;;10.30;83.00;;;;;;5067978;28;20454;-78
2023/03/22 05:31:10;;;;;;;12.55;8.43;;;10.30;83.10;;;;;;5059331;28;20124;-78
2023/03/22 05:33:36;;;;;;;14.25;8.05;;;10.30;83.10;;;;;;5075920;28;20039;-79
2023/03/22 05:36:02;;;;;;;14.85;8.65;;;10.30;83.20;;;;;;5092575;28;20125;-79
2023/03/22 05:38:27;;;;;;;14.20;8.75;;;10.30;83.20;;;;;;5058908;28;20044;-79
2023/03/22 05:40:53;;;;;;;14.25;8.68;;;10.40;83.30;;;;;;5075524;28;20044;-79
2023/03/22 05:43:19;;;;;;;16.08;9.75;;;10.30;83.30;;;;;;5092229;28;20044;-79
2023/03/22 05:45:45;;;;;;;13.45;8.93;;;10.40;83.30;;;;;;5058564;28;20032;-79
2023/03/22 05:48:11;;;;;;;14.40;9.50;;;10.40;83.40;;;;;;5065981;28;20107;-80
2023/03/22 05:50:37;;;;;;;14.48;8.32;;;10.40;83.40;;;;;;5071744;28;20050;-78
2023/03/22 05:53:03;;;;;;;17.55;9.13;;;10.30;83.40;;;;;;5074629;28;20035;-78
2023/03/22 05:55:30;;;;;;;18.17;9.45;;;10.40;83.50;;;;;;5101028;28;20131;-78
2023/03/22 05:57:57;;;;;;;18.30;9.48;;;10.40;83.50;;;;;;5068269;28;20071;-79
2023/03/22 06:00:24;;;;;;;17.25;8.65;;;10.40;83.60;;;;;;5096234;28;20406;-79
2023/03/22 06:02:55;;;;;;;15.73;9.20;;;10.30;83.60;;;;;;5085477;28;20043;-79
2023/03/22 06:05:21;;;;;;;12.93;8.40;;;10.40;83.70;;;;;;5088602;28;20506;-79
2023/03/22 06:07:47;;;;;;;12.55;8.10;;;10.40;83.80;;;;;;5086224;28;20121;-79
2023/03/22 06:10:14;;;;;;;16.58;9.68;;;10.40;83.80;;;;;;5099048;28;20123;-79
2023/03/22 06:12:40;;;;;;;16.17;8.93;;;10.40;83.80;;;;;;5098033;28;20077;-79
2023/03/22 06:15:07;;;;;;;16.42;9.32;;;10.40;83.90;;;;;;5117646;28;20036;-79
2023/03/22 06:17:33;;;;;;;17.80;9.80;;;10.40;83.90;;;;;;5095705;28;20126;-79
2023/03/22 06:19:59;;;;;;;13.10;8.90;;;10.40;83.90;;;;;;5093229;28;20097;-78
2023/03/22 06:22:25;;;;;;;15.07;9.88;;;10.40;83.90;;;;;;5075420;28;20071;-79
2023/03/22 06:24:50;;;;;;;15.48;9.20;;;10.40;83.90;;;;;;5062324;28;20075;-78
2023/03/22 06:27:16;;;;;;;14.45;8.10;;;10.40;83.90;;;;;;5110165;28;20039;-79
2023/03/22 06:29:43;;;;;;;13.27;8.73;;;10.50;84.00;;;;;;5115838;28;20045;-79
2023/03/22 06:32:09;;;;;;;13.50;9.32;;;10.40;84.00;;;;;;5098202;27;20039;-79
2023/03/22 06:34:35;;;;;;;14.90;8.23;;;10.50;84.10;;;;;;5099068;28;20040;-79
2023/03/22 06:37:01;;;;;;;14.38;8.80;;;10.50;84.10;;;;;;5065505;28;20044;-79
2023/03/22 06:39:27;;;;;;;15.45;8.32;;;10.50;84.10;;;;;;5082111;28;20426;-79
2023/03/22 06:41:52;;;;;;;19.92;9.38;;;10.50;84.20;;;;;;5048815;28;20040;-80
2023/03/22 06:44:18;;;;;;;16.13;8.40;;;10.60;84.30;;;;;;5065266;28;20486;-80
2023/03/22 06:46:44;;;;;;;13.65;8.48;;;10.60;84.20;;;;;;5065631;28;20028;-79
2023/03/22 06:49:10;;;;;;;12.40;8.52;;;10.60;84.20;;;;;;5076804;28;20490;-79
2023/03/22 06:51:35;;;;;;;13.30;8.30;;;10.70;84.20;;;;;;5107441;28;20044;-79
2023/03/22 06:54:01;;;;;;;14.73;7.80;;;10.70;84.10;;;;;;5089245;28;20044;-79
2023/03/22 06:56:27;;;;;;;21.27;9.38;;;10.70;84.00;;;;;;5060091;28;20046;-79
2023/03/22 06:58:56;;;;;;;14.48;7.88;;;10.70;83.90;;;;;;5075299;28;20039;-80
2023/03/22 07:01:23;;;;;;;10.07;7.53;;;10.80;83.90;;;;;;5089497;28;20031;-79
2023/03/22 07:03:49;;;;;;;13.07;7.00;;;10.80;83.90;;;;;;5095225;28;20067;-80
2023/03/22 07:06:14;;;;;;;15.52;8.10;;;10.90;83.80;;;;;;5078140;28;20466;-79
2023/03/22 07:08:40;;;;;;;16.45;7.82;;;10.90;83.60;;;;;;5078621;28;20054;-79
2023/03/22 07:11:06;;;;;;;16.65;7.78;;;10.90;83.50;;;;;;5110488;27;20037;-82
2023/03/22 07:13:32;;;;;;;14.55;6.88;;;10.90;83.30;;;;;;5108453;28;20482;-80
2023/03/22 07:16:00;;;;;;;12.02;7.18;;;11.00;83.20;;;;;;5065055;28;20046;-79
2023/03/22 07:18:27;;;;;;;11.07;6.72;;;11.00;83.10;;;;;;5081478;28;20094;-80
2023/03/22 07:20:53;;;;;;;9.88;6.40;;;11.10;83.00;;;;;;5098079;28;20122;-79
2023/03/22 07:23:19;;;;;;;12.65;7.15;;;11.10;82.80;;;;;;5081091;28;20173;-80
2023/03/22 07:25:46;;;;;;;12.13;6.30;;;11.10;82.60;;;;;;5081617;28;20433;-79
2023/03/22 07:28:11;;;;;;;10.68;6.30;;;11.10;82.40;;;;;;5098009;28;20047;-79
2023/03/22 07:30:38;;;;;;;19.42;6.82;;;11.20;82.20;;;;;;5098236;28;20036;-79
2023/03/22 07:33:09;;;;;;;11.68;5.68;;;11.20;82.00;;;;;;5080779;28;20039;-78
2023/03/22 07:35:36;;;;;;;12.07;5.88;;;11.20;81.80;;;;;;5080950;28;20035;-78
2023/03/22 07:38:03;;;;;;;9.85;6.32;;;11.20;81.70;;;;;;5114763;28;20101;-79
2023/03/22 07:40:29;;;;;;;11.30;5.68;;;11.20;81.70;;;;;;5080785;28;20049;-78
2023/03/22 07:42:55;;;;;;;11.43;6.05;;;11.20;81.60;;;;;;5080534;28;20044;-78
2023/03/22 07:45:22;;;;;;;10.35;5.90;;;11.30;81.50;;;;;;5097598;28;20047;-79
2023/03/22 07:47:47;;;;;;;12.73;4.97;;;11.30;81.30;;;;;;5131808;27;20126;-79
2023/03/22 07:50:14;;;;;;;10.18;5.60;;;11.30;81.10;;;;;;5084964;28;20126;-79
2023/03/22 07:52:40;;;;;;;9.13;5.40;;;11.30;81.00;;;;;;5060450;28;20046;-79
2023/03/22 07:55:08;;;;;;;11.38;5.45;;;11.30;80.90;;;;;;5093969;28;20483;-79
2023/03/22 07:57:35;;;;;;;11.55;5.80;;;11.30;80.80;;;;;;5059942;28;20468;-78
2023/03/22 08:00:03;;;;;;;11.93;4.88;;;11.30;80.80;;;;;;5076776;28;20502;-78
2023/03/22 08:02:29;;;;;;;9.02;5.20;;;11.40;80.70;;;;;;5076444;28;20123;-79
2023/03/22 08:04:55;;;;;;;12.07;4.95;;;11.40;80.60;;;;;;5060209;28;20123;-78
2023/03/22 08:07:20;;;;;;;11.73;4.82;;;11.40;80.50;;;;;;5082211;28;20070;-79
2023/03/22 08:09:46;;;;;;;10.18;5.13;;;11.40;80.40;;;;;;5080056;28;20521;-78
2023/03/22 08:12:12;;;;;;;11.43;4.72;;;11.50;80.30;;;;;;5080438;28;20039;-78
2023/03/22 08:14:38;;;;;;;7.78;3.97;;;11.40;80.10;;;;;;5096961;28;20069;-78
2023/03/22 08:17:04;;;;;;;13.02;4.68;;;11.50;80.10;;;;;;5080298;28;20043;-78
2023/03/22 08:19:31;;;;;;;10.75;4.88;;;11.50;80.00;;;;;;5096793;28;20115;-79
2023/03/22 08:21:58;;;;;;;11.27;4.07;;;11.50;80.00;;;;;;5096879;28;20479;-78
2023/03/22 08:24:25;;;;;;;10.23;4.32;;;11.50;79.90;;;;;;5097036;28;20414;-79
2023/03/22 08:26:51;;;;;;;10.40;4.50;;;11.50;79.70;;;;;;5080152;28;20127;-78
2023/03/22 08:29:18;;;;;;;10.10;4.20;;;11.60;79.70;;;;;;5096580;28;20043;-78
2023/03/22 08:31:45;;;;;;;7.55;4.07;;;11.60;80.10;;;;;;5080022;28;20391;-78
2023/03/22 08:34:11;;;;;;;10.40;3.92;;;11.60;79.70;;;;;;5063367;28;20102;-78
2023/03/22 08:36:37;;;;;;;10.93;5.28;;;11.70;79.60;;;;;;5063364;28;20134;-78
2023/03/22 08:39:03;;;;;;;7.30;3.90;;;11.70;79.40;;;;;;5096355;28;20071;-79
2023/03/22 08:41:30;;;;;;;9.55;4.30;;;11.70;79.20;;;;;;5079427;28;20052;-78
2023/03/22 08:43:56;;;;;;;9.32;4.13;;;11.80;79.20;;;;;;5062638;28;20071;-79
2023/03/22 08:46:22;;;;;;;11.45;3.75;;;11.80;79.40;;;;;;5063467;28;20043;-79
2023/03/22 08:48:49;;;;;;;7.40;3.67;;;11.80;79.40;;;;;;5079678;28;20079;-79
2023/03/22 08:51:20;;;;;;;13.27;5.38;;;11.90;79.10;;;;;;5062989;28;20073;-79
2023/03/22 08:53:47;;;;;;;9.77;4.07;;;12.00;78.90;;;;;;5079365;28;20467;-79
2023/03/22 08:56:15;;;;;;;9.40;4.55;;;12.00;78.80;;;;;;5078626;28;20046;-79
2023/03/22 08:58:45;;;;;;;9.93;3.83;;;12.00;78.60;;;;;;5096228;28;20110;-79
2023/03/22 09:01:12;;;;;;;10.45;3.60;;;12.10;78.40;;;;;;5079759;28;20044;-79
2023/03/22 09:03:38;;;;;;;10.98;3.95;;;12.10;78.20;;;;;;5095838;28;20043;-79
2023/03/22 09:06:04;;;;;;;7.15;3.80;;;12.10;78.00;;;;;;5096091;28;20040;-80
2023/03/22 09:08:30;;;;;;;9.93;3.53;;;12.20;77.90;;;;;;5078995;28;20494;-80
2023/03/22 09:10:55;;;;;;;9.02;3.72;;;12.20;77.60;;;;;;5079417;28;20074;-79
2023/03/22 09:13:21;;;;;;;10.77;3.70;;;12.20;77.50;;;;;;5096163;28;20061;-79
2023/03/22 09:15:47;;;;;;;14.57;3.95;;;12.20;77.60;;;;;;5079440;28;20054;-79
2023/03/22 09:18:14;;;;;;;14.18;3.63;;;12.20;77.50;;;;;;5095716;28;20499;-79
2023/03/22 09:20:39;;;;;;;10.10;3.67;;;12.30;77.60;;;;;;5092550;28;20036;-79
2023/03/22 09:23:05;;;;;;;10.38;3.35;;;12.30;77.50;;;;;;5075799;28;20488;-79
2023/03/22 09:25:32;;;;;;;8.40;2.97;;;12.30;77.20;;;;;;5059090;28;20048;-80
2023/03/22 09:27:57;;;;;;;11.63;3.47;;;12.40;77.00;;;;;;5109645;28;20443;-80
2023/03/22 09:30:23;;;;;;;10.20;4.05;;;12.40;76.90;;;;;;5041969;28;20136;-79
2023/03/22 09:32:49;;;;;;;10.45;2.97;;;12.40;76.80;;;;;;5075346;28;20404;-79
2023/03/22 09:35:15;;;;;;;8.18;2.72;;;12.40;76.70;;;;;;5092910;28;20039;-79
2023/03/22 09:37:41;;;;;;;7.60;2.90;;;12.40;76.60;;;;;;5092199;28;20036;-80
2023/03/22 09:40:07;;;;;;;9.32;3.33;;;12.40;76.70;;;;;;5058417;28;20148;-80
2023/03/22 09:42:44;;;;;;;10.02;3.20;;;12.40;76.60;;;;;;5058352;28;20040;-79
2023/03/22 09:45:17;;;;;;;10.45;3.25;;;12.40;76.50;;;;;;5058714;28;20325;-79
2023/03/22 09:47:47;;;;;;;10.45;3.20;;;12.40;76.50;;;;;;5082717;28;20101;-79
2023/03/22 09:50:20;;;;;;;10.07;4.05;;;12.40;76.70;;;;;;5078558;28;20078;-79
2023/03/22 09:52:46;;;;;;;8.65;4.10;;;12.40;76.60;;;;;;5078500;28;20046;-79
2023/03/22 09:55:44;;;;;;;13.85;5.03;;;12.40;76.50;;;;;;5045232;28;20032;-79
2023/03/22 09:58:31;;;;;;;10.90;4.55;;;12.40;76.40;;;;;;5078346;28;20043;-79
2023/03/22 10:01:01;;;;;;;9.35;3.90;;;12.40;76.50;;;;;;5095184;28;20036;-79
2023/03/22 10:03:43;;;;;;;12.25;4.63;;;12.40;76.50;;;;;;5095188;28;20061;-78
2023/03/22 10:06:18;;;;;;;7.70;3.33;;;12.30;76.20;;;;;;5078209;28;20039;-79
2023/03/22 10:08:50;;;;;;;8.13;3.03;;;12.30;76.30;;;;;;5098348;28;20112;-78
2023/03/22 10:11:34;;;;;;;10.68;3.50;;;12.20;76.50;;;;;;5082562;28;20039;-78
2023/03/22 10:14:23;;;;;;;9.45;3.15;;;12.20;76.60;;;;;;5082163;28;20039;-78
2023/03/22 10:16:51;;;;;;;8.13;2.97;;;12.20;76.80;;;;;;5099158;28;20150;-78
2023/03/22 10:19:30;;;;;;;8.23;3.03;;;12.10;76.90;;;;;;5099260;28;20043;-79
2023/03/22 10:22:00;;;;;;;9.68;3.17;;;12.10;77.00;;;;;;5082235;28;20155;-79
2023/03/22 10:24:30;;;;;;;8.90;3.35;;;12.10;77.30;;;;;;5082022;28;20043;-79
2023/03/22 10:26:56;;;;;;;7.07;2.70;;;12.10;77.50;;;;;;5082339;28;20042;-79
2023/03/22 10:29:45;;;;;;;7.05;3.13;;;12.10;77.60;;;;;;5065204;28;20036;-79
2023/03/22 10:32:18;;;;;;;7.93;3.05;;;12.10;77.80;;;;;;5081591;28;20043;-80
2023/03/22 10:34:45;;;;;;;11.70;5.03;;;12.10;77.90;;;;;;5082629;28;20054;-79
2023/03/22 10:37:16;;;;;;;9.18;3.53;;;12.00;78.10;;;;;;5066813;28;20075;-78
2023/03/22 10:39:49;;;;;;;9.13;3.50;;;12.00;78.30;;;;;;5084736;28;20122;-79
2023/03/22 10:42:22;;;;;;;9.68;3.70;;;12.00;78.60;;;;;;5081237;28;20044;-79
2023/03/22 10:45:02;;;;;;;10.82;5.20;;;12.00;78.90;;;;;;5062320;28;20399;-78
2023/03/22 10:47:40;;;;;;;10.15;4.03;;;12.00;79.10;;;;;;5060700;28;20043;-79
2023/03/22 10:50:16;;;;;;;8.98;3.90;;;12.00;79.30;;;;;;5052986;28;20043;-79
2023/03/22 10:52:48;;;;;;;9.82;3.72;;;12.00;79.50;;;;;;5069806;28;20040;-79
2023/03/22 10:55:15;;;;;;;12.70;3.70;;;12.00;79.80;;;;;;5060909;28;20123;-79
2023/03/22 10:57:50;;;;;;;9.55;3.95;;;12.00;79.90;;;;;;5069254;28;20044;-78
2023/03/22 11:00:16;;;;;;;8.70;4.05;;;12.00;80.10;;;;;;5078189;28;20040;-78
2023/03/22 11:02:50;;;;;;;8.45;3.70;;;12.00;80.10;;;;;;5045026;28;20161;-79
2023/03/22 11:05:21;;;;;;;;;;;12.00;80.30;;;;;;5092221;28;20487;-79
2023/03/22 11:07:48;;;;;;;7.00;4.07;;;11.90;80.30;;;;;;5058114;28;20363;-78
2023/03/22 11:10:21;;;;;;;10.60;4.15;;;11.90;80.60;;;;;;5058148;28;20118;-79
2023/03/22 11:12:51;;;;;;;7.95;3.28;;;11.90;80.80;;;;;;5058112;28;20075;-79
2023/03/22 11:15:27;;;;;;;7.45;3.00;;;11.90;81.00;;;;;;5057971;28;20094;-79
2023/03/22 11:18:01;;;;;;;8.27;3.30;;;11.90;81.20;;;;;;5066965;28;20043;-79
2023/03/22 11:20:27;;;;;;;12.50;4.33;;;11.90;81.30;;;;;;5061108;28;20078;-78
2023/03/22 11:22:55;;;;;;;7.05;3.13;;;11.90;81.30;;;;;;5044201;28;20028;-78
2023/03/22 11:25:30;;;;;;;10.00;3.60;;;11.90;81.50;;;;;;5061077;28;20516;-78
2023/03/22 11:28:14;;;;;;;8.07;2.63;;;11.90;81.60;;;;;;5094256;28;20036;-78
2023/03/22 11:30:40;;;;;;;9.52;3.65;;;11.90;81.60;;;;;;5093907;28;20071;-78
2023/03/22 11:33:15;;;;;;;7.80;2.60;;;11.90;81.60;;;;;;5094175;28;20043;-79
2023/03/22 11:35:45;;;;;;;4.95;2.50;;;11.90;81.70;;;;;;5077672;28;20083;-78
2023/03/22 11:38:22;;;;;;;8.23;2.70;;;11.90;81.80;;;;;;5060493;28;20141;-78
2023/03/22 11:41:00;;;;;;;5.65;2.30;;;11.90;81.80;;;;;;5068727;28;20043;-78
2023/03/22 11:43:36;;;;;;;5.68;2.60;;;11.90;81.70;;;;;;5080470;28;20046;-78
2023/03/22 11:46:02;;;;;;;7.43;2.72;;;12.00;81.60;;;;;;5060766;28;20034;-79
2023/03/22 11:48:31;;;;;;;5.65;2.80;;;12.00;81.70;;;;;;5060768;28;20098;-78
2023/03/22 11:51:09;;;;;;;9.98;2.85;;;12.00;81.60;;;;;;5060761;28;20047;-79
2023/03/22 11:53:38;;;;;;;6.05;2.17;;;12.00;81.60;;;;;;5077257;28;20043;-78
2023/03/22 11:56:06;;;;;;;9.25;2.70;;;12.00;81.60;;;;;;5076130;28;20047;-78
2023/03/22 11:58:55;;;;;;;6.60;2.42;;;12.00;81.50;;;;;;5080255;28;20062;-79
2023/03/22 12:01:33;;;;;;;6.70;2.60;;;12.00;81.30;;;;;;5031633;28;20075;-79
2023/03/22 12:04:02;;;;;;;4.95;2.45;;;12.00;81.40;;;;;;5098116;28;20035;-79
2023/03/22 12:06:33;;;;;;;11.82;2.83;;;12.00;81.40;;;;;;5064609;28;20119;-79
2023/03/22 12:09:12;;;;;;;5.68;2.50;;;12.00;81.40;;;;;;5073852;28;20459;-79
2023/03/22 12:11:48;;;;;;;6.78;2.45;;;12.00;81.20;;;;;;5080160;28;20503;-80
2023/03/22 12:14:35;;;;;;;9.48;2.95;;;12.00;81.10;;;;;;5096977;28;20043;-79
2023/03/22 12:17:17;;;;;;;8.65;2.85;;;12.00;81.10;;;;;;5097156;28;20039;-79
2023/03/22 12:20:12;;;;;;;7.60;2.60;;;12.00;81.10;;;;;;5080184;28;20035;-79
2023/03/22 12:22:44;;;;;;;5.55;2.55;;;12.00;81.10;;;;;;5075138;28;20540;-78
2023/03/22 12:25:32;;;;;;;9.50;3.03;;;12.00;81.00;;;;;;5079874;28;20653;-79
2023/03/22 12:28:06;;;;;;;10.77;3.17;;;12.00;80.90;;;;;;5080200;28;20390;-78
2023/03/22 12:30:52;;;;;;;9.40;3.47;;;12.00;80.90;;;;;;5095921;28;20398;-78
2023/03/22 12:33:31;;;;;;;9.63;2.65;;;12.00;80.90;;;;;;5096596;28;20039;-78
2023/03/22 12:36:05;;;;;;;5.95;2.67;;;12.00;80.90;;;;;;5079881;28;20080;-78
2023/03/22 12:38:47;;;;;;;10.25;3.22;;;12.00;80.90;;;;;;5062493;28;20050;-78
2023/03/22 12:41:30;;;;;;;6.25;3.25;;;12.00;81.00;;;;;;5096542;28;20494;-78
2023/03/22 12:44:03;;;;;;;9.27;3.45;;;12.00;81.20;;;;;;5079494;28;20046;-78
2023/03/22 12:46:42;;;;;;;8.07;3.78;;;12.00;81.40;;;;;;5079547;28;20040;-78
2023/03/22 12:49:39;;;;;;;9.07;3.63;;;12.00;81.60;;;;;;5079094;28;20050;-78
2023/03/22 12:52:24;;;;;;;8.25;3.20;;;12.00;81.80;;;;;;5079248;28;20072;-77
2023/03/22 12:54:52;;;;;;;6.43;3.00;;;11.90;81.80;;;;;;5089167;28;20051;-78
2023/03/22 12:57:18;;;;;;;10.07;3.40;;;11.90;82.00;;;;;;5065758;28;20044;-79